Wendover Airport
KENV : now visible

Airfield :











YOU CAN JOIN US ON...

 
LOGIN :

Register | Disclaimer

   EN    FR    IT 

 









Legend :    VFR   Marginal VFR   IFR   Intensive IFR   Very Intensive IFR
Visi :
Ceiling :
>= 8 km
>= 3000ft
5 to 8 km
1000 to 3000 ft
1500m to 5 km
500 to 1000 ft
800 to 1500m
200 to 500 ft
< 800m
< 200 ft
Symbols :   Thunderstorms  Fog  Heavy snow  Heavy precipitations  Wind > 20 kt






- Airport Elevation : 4237 ft


KENV - Wendover

CURRENT METAR :
  • 300356Z AUTO 14003KT 10SM OVC060 04/M01 A2967 RMK AO2 SLP051 T00441011 PNO $

EXPIRED METARs :
  • 300256Z AUTO 20005KT 10SM OVC065 05/M07 A2967 RMK AO2 SLP052 6//// T00501072 53004 PNO $
  • 300156Z AUTO 32014G18KT 10SM OVC065 05/M07 A2966 RMK AO2 SLP048 T00501072 PNO $

TAF KENV
Valid from the 30 at 00:00 until the 31 at 00:00 UTC


292320Z 3000/3024 30020G30KT P6SM SCT030 BKN060
FM300100 30010KT P6SM VCSH SCT030 BKN050
FM300300 VRB05KT P6SM VCSH SCT050 BKN070
FM301600 28015KT P6SM SCT100
KZLC FIR / North America



MET'MAP, your aeronautical weather chart ! - Copyright ORBIFLY December 2007 - Disclaimer

ORBIFLY MET'MAP TEAM :

Programming & Development : Alexandra Zaïnal
Original concept : Baudouin d'Aumeries
Technical & hardware support : Manuel Goepfert
Assistance : Marc-Olivier Méhu




SOURCES & CREDITS :

   NOAA       Earth
Advisory